x

Nanakwa Shoal (46181) Wave Buoy

3:00pm - Tue 25th Jul 2017 All times are PDT. -7 hours from GMT.

  • Sig Wave height 0.7ft
  • Peak Period 2s
  • Wind
    18mph, 20mph gusts
  • Sea Temp 62°f
  • Air Temp 66°f
  • Sea Pressure 1016.5mb
  • Nanakwa Shoal
  • Nanakwa Shoal

More Historic Weather Station data

Upgrade to MSW Pro to gain access to the past 30 days of data for over 8000 Wavebouys and Weather Stations around the globe.

Join Pro

Comparision Forecast

View Surf forecast
   
Tue 07/25 3:00pm 0.7ft 2s 18 20 mph 1016.5mb 62f 66f
2:00pm 0.3ft 2s 16 18 mph 1017.2mb 62f 65f
1:00pm 0.3ft 2s 13 16 mph 1017.7mb 62f 62f
12:00pm 0.3ft 2s 11 13 mph 1018.2mb 62f 62f
11:00am  -  2s 11 13 mph 1018.9mb 62f 60f
10:00am  -  2s 9 9 mph 1019.2mb 61f 59f
9:00am  -  2s 7 9 mph 1019.5mb 61f 58f
8:00am 0.3ft 2s 9 11 mph 1019.4mb 60f 58f
7:00am  -  2s 9 11 mph 1019.1mb 60f 58f
6:00am  -  4s 4 7 mph 1018.8mb 60f 57f
5:00am 0.3ft 2s 4 9 mph 1018.5mb 60f 58f
4:00am 0.3ft 2s 9 11 mph 1018.2mb 60f 59f
3:00am 0.3ft 2s 7 9 mph 1018.2mb 61f 58f
2:00am 0.3ft 2s 4 9 mph 1018.2mb 61f 60f
1:00am 0.3ft 2s 9 11 mph 1018.1mb 60f 61f
12:00am 0.3ft 2s 9 11 mph 1017.9mb 60f 63f
Mon 07/24 11:00pm 0.3ft 2s 13 16 mph 1017.8mb 61f 64f
10:00pm 0.7ft 2s 18 20 mph 1017.5mb 61f 65f
9:00pm 1ft 2s 18 22 mph 1017.1mb 61f 66f
8:00pm 0.7ft 3s 13 13 mph 1017mb 62f 65f
7:00pm 1ft 3s 18 18 mph 1016.8mb 62f 67f
6:00pm 0.7ft 2s 13 16 mph 1017.2mb 63f 66f
5:00pm 0.3ft 2s 13 16 mph 1017.4mb 63f 66f
4:00pm  -  2s 16 16 mph 1017.7mb 63f 65f
3:00pm  -  2s 11 11 mph 1018mb 64f 64f
2:00pm  -  2s 7 7 mph 1018.5mb 64f 64f
1:00pm  -  4s 4 7 mph 1019.3mb 63f 63f
12:00pm 0.3ft 3s 4 4 mph 1020mb 63f 62f
11:00am 0.3ft 2s 2 4 mph 1020.9mb 61f 60f
10:00am 0.3ft 2s 9 11 mph 1021.4mb 61f 58f
9:00am 0.3ft 2s 11 13 mph 1022mb 60f 56f
8:00am 0.3ft 2s 11 13 mph 1022.3mb 59f 55f
7:00am 0.3ft 2s 11 13 mph 1022.5mb 59f 54f
6:00am 0.3ft 4s 9 11 mph 1022.4mb 59f 54f
5:00am  -  2s 7 9 mph 1022.3mb 59f 55f
4:00am  -  4s 7 9 mph 1022.5mb 59f 56f
3:00am  -  4s 2 2 mph 1022.5mb 59f 57f
2:00am  -  4s 2 4 mph 1022.6mb 60f 57f
1:00am  -  4s 4 7 mph 1022.8mb 60f 58f
12:00am 0.3ft 2s 7 9 mph 1022.9mb 60f 59f
Sun 07/23 11:00pm 0.3ft 2s 7 11 mph 1023mb 60f 60f
10:00pm 0.3ft 2s 9 11 mph 1022.7mb 60f 60f
9:00pm 0.7ft 2s 13 16 mph 1022.6mb 60f 61f
8:00pm 0.7ft 2s 13 13 mph 1022.7mb 60f 62f
7:00pm 0.7ft 3s 13 18 mph 1022.6mb 61f 63f
6:00pm 0.3ft 2s 13 18 mph 1022.7mb 61f 63f
5:00pm 0.3ft 2s 13 13 mph 1022.9mb 62f 62f
4:00pm 0.3ft 2s 11 16 mph 1023mb 61f 62f
3:00pm 0.3ft 2s 13 16 mph 1023.1mb 61f 61f
2:00pm 0.3ft 2s 11 13 mph 1023.6mb 61f 60f
1:00pm  -  2s 9 11 mph 1023.7mb 60f 60f
12:00pm 0.3ft 2s 9 9 mph 1023.8mb 60f 58f
11:00am 0.3ft 2s 7 9 mph 1023.7mb 60f 57f
10:00am 0.3ft 2s 9 9 mph 1023.8mb 59f 56f
9:00am 0.3ft 3s 4 9 mph 1024mb 59f 56f
8:00am 0.3ft 2s 7 9 mph 1023.9mb 58f 55f
7:00am 0.3ft 2s 7 9 mph 1023.4mb 58f 55f
6:00am 0.3ft 2s 7 9 mph 1023.2mb 58f 55f
5:00am 0.3ft 2s 9 9 mph 1022.8mb 59f 55f
4:00am 0.3ft 2s 4 7 mph 1022.6mb 58f 55f
3:00am 0.3ft 2s 4 7 mph 1022.3mb 59f 55f
2:00am 0.3ft 2s 9 9 mph 1022mb 59f 55f
1:00am 0.3ft 2s 11 13 mph 1022mb 58f 55f
12:00am 0.3ft 2s 9 13 mph 1022mb 59f 56f
Sat 07/22 11:00pm 0.3ft 2s 9 13 mph 1021.8mb 59f 57f
10:00pm 0.3ft 2s 13 16 mph 1021.9mb 58f 57f
9:00pm 0.7ft 2s 11 16 mph 1021.6mb 59f 57f
8:00pm 0.7ft 2s 16 18 mph 1021.3mb 59f 57f
7:00pm 1ft 2s 18 22 mph 1021.1mb 60f 57f
6:00pm 1ft 2s 13 18 mph 1020.9mb 60f 59f
5:00pm 0.7ft 2s 13 16 mph 1020.6mb 60f 59f
4:00pm 0.7ft 2s 16 18 mph 1020.3mb 60f 59f
3:00pm 0.7ft 2s 18 20 mph 1019.9mb 60f 58f
2:00pm 0.3ft 2s 20 25 mph 1019.4mb 60f 58f
1:00pm 0.7ft 2s 13 16 mph 1019.1mb 60f 58f
12:00pm 0.7ft 2s 11 16 mph 1018.6mb 60f 58f
11:00am 1.3ft 3s 16 22 mph 1017.9mb 60f 58f
10:00am 2ft 3s 22 27 mph 1016.6mb 61f 57f
9:00am 1ft 2s 27 34 mph 1015mb 61f 59f
8:00am 0.3ft 2s 13 18 mph 1014.5mb 60f 59f
7:00am 0.3ft 2s  -  2 mph 1014.3mb 60f 58f
6:00am  -  4s  -  2 mph 1013.8mb 61f 58f
5:00am  -  4s  -  2 mph 1013.6mb 61f 57f
4:00am  -  4s  -  2 mph 1013.6mb 61f 58f
3:00am  -  5s 2 4 mph 1013.3mb 61f 58f
2:00am  -  4s 4 4 mph 1013.4mb 61f 58f
1:00am  -  4s 2 2 mph 1013.7mb 61f 58f
12:00am  -  4s  -  2 mph 1013.9mb 61f 58f